sensor_id;sensor_type;location;lat;lon;timestamp;P1;durP1;ratioP1;P2;durP2;ratioP2
16039;SDS011;8124;48.634;8.120;2023-01-29T00:02:29;38.57;;;34.40;;
16039;SDS011;8124;48.634;8.120;2023-01-29T00:07:34;38.73;;;33.77;;
16039;SDS011;8124;48.634;8.120;2023-01-29T00:12:37;37.57;;;33.67;;
16039;SDS011;8124;48.634;8.120;2023-01-29T00:17:40;39.33;;;35.13;;
16039;SDS011;8124;48.634;8.120;2023-01-29T00:22:44;36.77;;;32.87;;
16039;SDS011;8124;48.634;8.120;2023-01-29T00:27:47;38.53;;;34.43;;
16039;SDS011;8124;48.634;8.120;2023-01-29T00:32:50;37.27;;;33.13;;
16039;SDS011;8124;48.634;8.120;2023-01-29T00:37:55;38.63;;;34.47;;
16039;SDS011;8124;48.634;8.120;2023-01-29T00:42:59;38.13;;;33.93;;
16039;SDS011;8124;48.634;8.120;2023-01-29T00:48:19;36.83;;;32.93;;
16039;SDS011;8124;48.634;8.120;2023-01-29T00:53:23;39.63;;;33.20;;
16039;SDS011;8124;48.634;8.120;2023-01-29T00:58:26;37.57;;;33.47;;
16039;SDS011;8124;48.634;8.120;2023-01-29T01:03:34;37.67;;;33.73;;
16039;SDS011;8124;48.634;8.120;2023-01-29T01:08:43;36.37;;;32.47;;
16039;SDS011;8124;48.634;8.120;2023-01-29T01:14:04;37.47;;;32.97;;
16039;SDS011;8124;48.634;8.120;2023-01-29T01:19:07;36.93;;;33.03;;
16039;SDS011;8124;48.634;8.120;2023-01-29T01:24:12;37.50;;;33.50;;
16039;SDS011;8124;48.634;8.120;2023-01-29T01:29:15;37.13;;;33.13;;
16039;SDS011;8124;48.634;8.120;2023-01-29T01:34:18;37.07;;;33.20;;
16039;SDS011;8124;48.634;8.120;2023-01-29T01:39:23;37.43;;;33.40;;
16039;SDS011;8124;48.634;8.120;2023-01-29T01:49:56;37.50;;;33.67;;
16039;SDS011;8124;48.634;8.120;2023-01-29T01:55:05;36.70;;;32.80;;
16039;SDS011;8124;48.634;8.120;2023-01-29T02:00:10;37.20;;;33.27;;
16039;SDS011;8124;48.634;8.120;2023-01-29T02:05:16;36.50;;;32.70;;
16039;SDS011;8124;48.634;8.120;2023-01-29T02:10:39;36.37;;;32.57;;
16039;SDS011;8124;48.634;8.120;2023-01-29T02:15:45;37.20;;;33.20;;
16039;SDS011;8124;48.634;8.120;2023-01-29T02:20:54;36.37;;;32.50;;
16039;SDS011;8124;48.634;8.120;2023-01-29T02:26:31;35.90;;;32.03;;
16039;SDS011;8124;48.634;8.120;2023-01-29T02:31:56;36.13;;;32.40;;
16039;SDS011;8124;48.634;8.120;2023-01-29T02:37:07;36.10;;;32.30;;
16039;SDS011;8124;48.634;8.120;2023-01-29T02:42:15;36.37;;;32.60;;
16039;SDS011;8124;48.634;8.120;2023-01-29T02:47:28;36.57;;;32.77;;
16039;SDS011;8124;48.634;8.120;2023-01-29T02:52:37;35.97;;;32.17;;
16039;SDS011;8124;48.634;8.120;2023-01-29T02:57:50;37.17;;;33.37;;
16039;SDS011;8124;48.634;8.120;2023-01-29T03:02:59;36.87;;;32.97;;
16039;SDS011;8124;48.634;8.120;2023-01-29T03:08:08;37.40;;;33.30;;
16039;SDS011;8124;48.634;8.120;2023-01-29T03:13:17;36.90;;;33.00;;
16039;SDS011;8124;48.634;8.120;2023-01-29T03:18:45;37.07;;;33.17;;
16039;SDS011;8124;48.634;8.120;2023-01-29T03:23:53;36.83;;;33.03;;
16039;SDS011;8124;48.634;8.120;2023-01-29T03:29:15;37.40;;;33.50;;
16039;SDS011;8124;48.634;8.120;2023-01-29T03:34:37;37.30;;;33.40;;
16039;SDS011;8124;48.634;8.120;2023-01-29T03:39:44;36.67;;;32.87;;
16039;SDS011;8124;48.634;8.120;2023-01-29T03:44:51;37.97;;;33.87;;
16039;SDS011;8124;48.634;8.120;2023-01-29T03:50:06;37.73;;;33.77;;
16039;SDS011;8124;48.634;8.120;2023-01-29T03:55:13;37.27;;;33.37;;
16039;SDS011;8124;48.634;8.120;2023-01-29T04:00:19;36.50;;;32.77;;
16039;SDS011;8124;48.634;8.120;2023-01-29T04:05:38;38.13;;;34.03;;
16039;SDS011;8124;48.634;8.120;2023-01-29T04:10:53;36.60;;;32.80;;
16039;SDS011;8124;48.634;8.120;2023-01-29T04:16:01;36.87;;;33.07;;
16039;SDS011;8124;48.634;8.120;2023-01-29T04:21:28;36.70;;;32.87;;
16039;SDS011;8124;48.634;8.120;2023-01-29T04:26:41;36.47;;;32.47;;
16039;SDS011;8124;48.634;8.120;2023-01-29T04:31:58;36.53;;;32.70;;
16039;SDS011;8124;48.634;8.120;2023-01-29T04:37:11;36.90;;;32.90;;
16039;SDS011;8124;48.634;8.120;2023-01-29T04:42:20;36.83;;;32.83;;
16039;SDS011;8124;48.634;8.120;2023-01-29T04:47:32;36.50;;;32.70;;
16039;SDS011;8124;48.634;8.120;2023-01-29T04:52:40;36.80;;;32.90;;
16039;SDS011;8124;48.634;8.120;2023-01-29T04:57:49;37.07;;;33.23;;
16039;SDS011;8124;48.634;8.120;2023-01-29T05:02:57;36.10;;;32.33;;
16039;SDS011;8124;48.634;8.120;2023-01-29T05:08:03;36.53;;;32.60;;
16039;SDS011;8124;48.634;8.120;2023-01-29T05:13:07;36.47;;;32.67;;
16039;SDS011;8124;48.634;8.120;2023-01-29T05:18:14;37.07;;;33.20;;
16039;SDS011;8124;48.634;8.120;2023-01-29T05:23:19;37.10;;;33.10;;
16039;SDS011;8124;48.634;8.120;2023-01-29T05:28:23;36.87;;;32.93;;
16039;SDS011;8124;48.634;8.120;2023-01-29T05:33:27;36.90;;;32.90;;
16039;SDS011;8124;48.634;8.120;2023-01-29T05:38:32;36.90;;;32.90;;
16039;SDS011;8124;48.634;8.120;2023-01-29T05:43:35;37.70;;;33.73;;
16039;SDS011;8124;48.634;8.120;2023-01-29T05:48:38;36.83;;;32.50;;
16039;SDS011;8124;48.634;8.120;2023-01-29T05:53:42;37.10;;;33.03;;
16039;SDS011;8124;48.634;8.120;2023-01-29T05:58:45;41.50;;;37.00;;
16039;SDS011;8124;48.634;8.120;2023-01-29T06:03:48;36.77;;;32.97;;
16039;SDS011;8124;48.634;8.120;2023-01-29T06:08:53;36.80;;;32.90;;
16039;SDS011;8124;48.634;8.120;2023-01-29T06:13:56;36.43;;;32.63;;
16039;SDS011;8124;48.634;8.120;2023-01-29T06:18:59;39.05;;;34.75;;
16039;SDS011;8124;48.634;8.120;2023-01-29T06:24:04;36.77;;;32.93;;
16039;SDS011;8124;48.634;8.120;2023-01-29T06:29:07;37.83;;;33.83;;
16039;SDS011;8124;48.634;8.120;2023-01-29T06:34:10;51.90;;;39.30;;
16039;SDS011;8124;48.634;8.120;2023-01-29T06:39:14;42.53;;;36.20;;
16039;SDS011;8124;48.634;8.120;2023-01-29T06:44:17;40.90;;;36.60;;
16039;SDS011;8124;48.634;8.120;2023-01-29T06:49:20;37.30;;;33.17;;
16039;SDS011;8124;48.634;8.120;2023-01-29T06:54:24;36.63;;;32.63;;
16039;SDS011;8124;48.634;8.120;2023-01-29T06:59:27;36.03;;;32.23;;
16039;SDS011;8124;48.634;8.120;2023-01-29T07:04:30;36.23;;;32.53;;
16039;SDS011;8124;48.634;8.120;2023-01-29T07:09:34;36.93;;;33.03;;
16039;SDS011;8124;48.634;8.120;2023-01-29T07:14:37;37.53;;;33.50;;
16039;SDS011;8124;48.634;8.120;2023-01-29T07:19:40;36.67;;;32.87;;
16039;SDS011;8124;48.634;8.120;2023-01-29T07:24:44;36.50;;;32.73;;
16039;SDS011;8124;48.634;8.120;2023-01-29T07:29:48;38.73;;;33.43;;
16039;SDS011;8124;48.634;8.120;2023-01-29T07:34:51;37.33;;;33.23;;
16039;SDS011;8124;48.634;8.120;2023-01-29T07:39:55;36.97;;;33.07;;
16039;SDS011;8124;48.634;8.120;2023-01-29T07:44:58;39.50;;;33.80;;
16039;SDS011;8124;48.634;8.120;2023-01-29T07:50:01;39.07;;;34.90;;
16039;SDS011;8124;48.634;8.120;2023-01-29T07:55:06;40.20;;;35.73;;
16039;SDS011;8124;48.634;8.120;2023-01-29T08:00:10;39.03;;;34.30;;
16039;SDS011;8124;48.634;8.120;2023-01-29T08:05:14;38.10;;;34.20;;
16039;SDS011;8124;48.634;8.120;2023-01-29T08:10:19;36.70;;;32.90;;
16039;SDS011;8124;48.634;8.120;2023-01-29T08:15:22;37.53;;;33.43;;
16039;SDS011;8124;48.634;8.120;2023-01-29T08:20:25;38.03;;;33.93;;
16039;SDS011;8124;48.634;8.120;2023-01-29T08:25:30;40.27;;;34.10;;
16039;SDS011;8124;48.634;8.120;2023-01-29T08:30:33;36.93;;;33.03;;
16039;SDS011;8124;48.634;8.120;2023-01-29T08:35:36;38.27;;;34.10;;
16039;SDS011;8124;48.634;8.120;2023-01-29T08:40:42;37.10;;;33.20;;
16039;SDS011;8124;48.634;8.120;2023-01-29T08:45:45;37.27;;;33.37;;
16039;SDS011;8124;48.634;8.120;2023-01-29T08:50:49;37.97;;;33.83;;
16039;SDS011;8124;48.634;8.120;2023-01-29T08:55:54;38.47;;;33.37;;
16039;SDS011;8124;48.634;8.120;2023-01-29T09:01:03;37.13;;;33.23;;
16039;SDS011;8124;48.634;8.120;2023-01-29T09:06:07;37.23;;;33.10;;
16039;SDS011;8124;48.634;8.120;2023-01-29T09:11:12;37.80;;;33.70;;
16039;SDS011;8124;48.634;8.120;2023-01-29T09:16:15;38.50;;;33.67;;
16039;SDS011;8124;48.634;8.120;2023-01-29T09:21:18;38.90;;;34.73;;
16039;SDS011;8124;48.634;8.120;2023-01-29T09:26:22;37.27;;;33.27;;
16039;SDS011;8124;48.634;8.120;2023-01-29T09:31:25;36.80;;;32.90;;
16039;SDS011;8124;48.634;8.120;2023-01-29T09:36:28;41.70;;;34.57;;
16039;SDS011;8124;48.634;8.120;2023-01-29T09:41:36;37.73;;;33.73;;
16039;SDS011;8124;48.634;8.120;2023-01-29T09:46:49;37.63;;;33.67;;
16039;SDS011;8124;48.634;8.120;2023-01-29T09:51:55;38.63;;;34.43;;
16039;SDS011;8124;48.634;8.120;2023-01-29T09:57:03;38.10;;;33.97;;
16039;SDS011;8124;48.634;8.120;2023-01-29T10:02:16;41.60;;;33.97;;
16039;SDS011;8124;48.634;8.120;2023-01-29T10:07:43;38.50;;;34.40;;
16039;SDS011;8124;48.634;8.120;2023-01-29T10:13:09;38.80;;;34.67;;
16039;SDS011;8124;48.634;8.120;2023-01-29T10:18:27;37.80;;;33.83;;
16039;SDS011;8124;48.634;8.120;2023-01-29T10:23:45;39.47;;;33.97;;
16039;SDS011;8124;48.634;8.120;2023-01-29T10:28:53;40.47;;;34.13;;
16039;SDS011;8124;48.634;8.120;2023-01-29T10:33:59;39.97;;;34.07;;
16039;SDS011;8124;48.634;8.120;2023-01-29T10:39:04;37.43;;;33.53;;
16039;SDS011;8124;48.634;8.120;2023-01-29T10:44:18;38.57;;;34.07;;
16039;SDS011;8124;48.634;8.120;2023-01-29T10:49:40;38.77;;;34.47;;
16039;SDS011;8124;48.634;8.120;2023-01-29T10:55:14;38.23;;;33.83;;
16039;SDS011;8124;48.634;8.120;2023-01-29T11:00:25;37.43;;;33.43;;
16039;SDS011;8124;48.634;8.120;2023-01-29T11:05:32;37.17;;;33.17;;
16039;SDS011;8124;48.634;8.120;2023-01-29T11:10:40;37.73;;;33.73;;
16039;SDS011;8124;48.634;8.120;2023-01-29T11:15:49;39.07;;;34.97;;
16039;SDS011;8124;48.634;8.120;2023-01-29T11:20:59;37.23;;;33.23;;
16039;SDS011;8124;48.634;8.120;2023-01-29T11:26:03;37.73;;;33.63;;
16039;SDS011;8124;48.634;8.120;2023-01-29T11:31:16;38.93;;;34.77;;
16039;SDS011;8124;48.634;8.120;2023-01-29T11:36:26;37.27;;;33.27;;
16039;SDS011;8124;48.634;8.120;2023-01-29T11:41:39;37.80;;;33.70;;
16039;SDS011;8124;48.634;8.120;2023-01-29T11:46:46;37.40;;;33.40;;
16039;SDS011;8124;48.634;8.120;2023-01-29T11:51:51;37.40;;;33.30;;
16039;SDS011;8124;48.634;8.120;2023-01-29T11:56:55;38.57;;;33.67;;
16039;SDS011;8124;48.634;8.120;2023-01-29T12:02:04;37.67;;;33.60;;
16039;SDS011;8124;48.634;8.120;2023-01-29T12:07:20;37.10;;;33.07;;
16039;SDS011;8124;48.634;8.120;2023-01-29T12:12:28;40.57;;;34.70;;
16039;SDS011;8124;48.634;8.120;2023-01-29T12:17:35;39.70;;;35.30;;
16039;SDS011;8124;48.634;8.120;2023-01-29T12:22:41;39.33;;;34.13;;
16039;SDS011;8124;48.634;8.120;2023-01-29T12:27:52;39.53;;;35.23;;
16039;SDS011;8124;48.634;8.120;2023-01-29T12:33:04;40.57;;;35.50;;
16039;SDS011;8124;48.634;8.120;2023-01-29T12:38:16;39.07;;;34.90;;
16039;SDS011;8124;48.634;8.120;2023-01-29T12:43:21;38.90;;;34.60;;
16039;SDS011;8124;48.634;8.120;2023-01-29T12:48:31;39.40;;;35.10;;
16039;SDS011;8124;48.634;8.120;2023-01-29T12:53:40;37.97;;;33.87;;
16039;SDS011;8124;48.634;8.120;2023-01-29T12:58:48;38.67;;;34.47;;
16039;SDS011;8124;48.634;8.120;2023-01-29T13:03:56;39.00;;;34.57;;
16039;SDS011;8124;48.634;8.120;2023-01-29T13:09:05;38.33;;;34.23;;
16039;SDS011;8124;48.634;8.120;2023-01-29T13:14:15;38.30;;;34.20;;
16039;SDS011;8124;48.634;8.120;2023-01-29T13:19:24;40.30;;;35.10;;
16039;SDS011;8124;48.634;8.120;2023-01-29T13:24:32;39.43;;;34.50;;
16039;SDS011;8124;48.634;8.120;2023-01-29T13:29:40;39.20;;;35.00;;
16039;SDS011;8124;48.634;8.120;2023-01-29T13:34:46;39.87;;;35.57;;
16039;SDS011;8124;48.634;8.120;2023-01-29T13:39:51;39.83;;;35.53;;
16039;SDS011;8124;48.634;8.120;2023-01-29T13:44:56;39.60;;;35.27;;
16039;SDS011;8124;48.634;8.120;2023-01-29T13:50:04;49.67;;;35.28;;
16039;SDS011;8124;48.634;8.120;2023-01-29T13:55:18;39.57;;;35.27;;
16039;SDS011;8124;48.634;8.120;2023-01-29T14:05:59;39.80;;;35.50;;
16039;SDS011;8124;48.634;8.120;2023-01-29T14:11:26;39.13;;;34.80;;
16039;SDS011;8124;48.634;8.120;2023-01-29T14:16:35;40.53;;;35.60;;
16039;SDS011;8124;48.634;8.120;2023-01-29T14:21:40;39.42;;;34.40;;
16039;SDS011;8124;48.634;8.120;2023-01-29T14:26:52;39.30;;;34.63;;
16039;SDS011;8124;48.634;8.120;2023-01-29T14:31:56;40.55;;;36.17;;
16039;SDS011;8124;48.634;8.120;2023-01-29T14:37:13;39.17;;;34.90;;
16039;SDS011;8124;48.634;8.120;2023-01-29T14:42:22;41.10;;;34.93;;
16039;SDS011;8124;48.634;8.120;2023-01-29T14:53:04;39.77;;;35.40;;
16039;SDS011;8124;48.634;8.120;2023-01-29T14:58:14;39.87;;;35.20;;
16039;SDS011;8124;48.634;8.120;2023-01-29T15:03:21;41.35;;;36.42;;
16039;SDS011;8124;48.634;8.120;2023-01-29T15:08:37;41.22;;;35.92;;
16039;SDS011;8124;48.634;8.120;2023-01-29T15:13:46;40.85;;;35.83;;
16039;SDS011;8124;48.634;8.120;2023-01-29T15:18:55;39.40;;;35.05;;
16039;SDS011;8124;48.634;8.120;2023-01-29T15:24:12;42.33;;;36.93;;
16039;SDS011;8124;48.634;8.120;2023-01-29T15:29:20;39.80;;;35.37;;
16039;SDS011;8124;48.634;8.120;2023-01-29T15:34:24;42.20;;;36.43;;
16039;SDS011;8124;48.634;8.120;2023-01-29T15:39:29;42.10;;;35.97;;
16039;SDS011;8124;48.634;8.120;2023-01-29T15:44:32;40.53;;;35.87;;
16039;SDS011;8124;48.634;8.120;2023-01-29T15:49:37;41.97;;;36.60;;
16039;SDS011;8124;48.634;8.120;2023-01-29T15:54:42;40.50;;;35.43;;
16039;SDS011;8124;48.634;8.120;2023-01-29T15:59:46;40.33;;;34.87;;
16039;SDS011;8124;48.634;8.120;2023-01-29T16:04:52;41.45;;;36.28;;
16039;SDS011;8124;48.634;8.120;2023-01-29T16:09:56;41.40;;;36.50;;
16039;SDS011;8124;48.634;8.120;2023-01-29T16:15:02;39.77;;;35.47;;
16039;SDS011;8124;48.634;8.120;2023-01-29T16:20:18;44.03;;;36.80;;
16039;SDS011;8124;48.634;8.120;2023-01-29T16:25:32;39.77;;;35.50;;
16039;SDS011;8124;48.634;8.120;2023-01-29T16:30:38;40.07;;;35.07;;
16039;SDS011;8124;48.634;8.120;2023-01-29T16:35:41;41.60;;;36.47;;
16039;SDS011;8124;48.634;8.120;2023-01-29T16:46:32;40.23;;;35.80;;
16039;SDS011;8124;48.634;8.120;2023-01-29T16:51:37;45.20;;;37.93;;
16039;SDS011;8124;48.634;8.120;2023-01-29T16:56:42;46.80;;;38.93;;
16039;SDS011;8124;48.634;8.120;2023-01-29T17:01:47;51.20;;;40.70;;
16039;SDS011;8124;48.634;8.120;2023-01-29T17:06:53;51.28;;;42.13;;
16039;SDS011;8124;48.634;8.120;2023-01-29T17:11:59;42.00;;;37.40;;
16039;SDS011;8124;48.634;8.120;2023-01-29T17:17:04;42.00;;;37.20;;
16039;SDS011;8124;48.634;8.120;2023-01-29T17:22:08;40.37;;;35.43;;
16039;SDS011;8124;48.634;8.120;2023-01-29T17:27:17;41.10;;;35.27;;
16039;SDS011;8124;48.634;8.120;2023-01-29T17:32:22;43.27;;;37.07;;
16039;SDS011;8124;48.634;8.120;2023-01-29T17:37:47;43.73;;;37.93;;
16039;SDS011;8124;48.634;8.120;2023-01-29T17:42:51;41.87;;;36.90;;
16039;SDS011;8124;48.634;8.120;2023-01-29T17:47:54;55.57;;;41.63;;
16039;SDS011;8124;48.634;8.120;2023-01-29T17:52:57;47.47;;;40.07;;
16039;SDS011;8124;48.634;8.120;2023-01-29T17:58:02;45.73;;;37.60;;
16039;SDS011;8124;48.634;8.120;2023-01-29T18:03:05;44.07;;;38.07;;
16039;SDS011;8124;48.634;8.120;2023-01-29T18:08:11;41.40;;;36.33;;
16039;SDS011;8124;48.634;8.120;2023-01-29T18:13:20;42.30;;;36.57;;
16039;SDS011;8124;48.634;8.120;2023-01-29T18:18:23;43.20;;;37.00;;
16039;SDS011;8124;48.634;8.120;2023-01-29T18:23:26;40.83;;;35.73;;
16039;SDS011;8124;48.634;8.120;2023-01-29T18:28:30;39.87;;;34.77;;
16039;SDS011;8124;48.634;8.120;2023-01-29T18:33:34;41.17;;;35.90;;
16039;SDS011;8124;48.634;8.120;2023-01-29T18:38:37;39.63;;;34.83;;
16039;SDS011;8124;48.634;8.120;2023-01-29T18:43:41;38.37;;;34.37;;
16039;SDS011;8124;48.634;8.120;2023-01-29T18:48:44;38.47;;;34.13;;
16039;SDS011;8124;48.634;8.120;2023-01-29T18:53:48;39.60;;;35.23;;
16039;SDS011;8124;48.634;8.120;2023-01-29T18:58:54;39.17;;;34.87;;
16039;SDS011;8124;48.634;8.120;2023-01-29T19:03:57;37.23;;;33.23;;
16039;SDS011;8124;48.634;8.120;2023-01-29T19:09:01;38.00;;;33.73;;
16039;SDS011;8124;48.634;8.120;2023-01-29T19:14:06;38.43;;;34.23;;
16039;SDS011;8124;48.634;8.120;2023-01-29T19:19:09;40.50;;;34.57;;
16039;SDS011;8124;48.634;8.120;2023-01-29T19:24:18;39.53;;;35.23;;
16039;SDS011;8124;48.634;8.120;2023-01-29T19:29:23;41.20;;;36.70;;
16039;SDS011;8124;48.634;8.120;2023-01-29T19:34:25;40.20;;;34.23;;
16039;SDS011;8124;48.634;8.120;2023-01-29T19:39:28;40.00;;;34.00;;
16039;SDS011;8124;48.634;8.120;2023-01-29T19:44:35;38.47;;;33.77;;
16039;SDS011;8124;48.634;8.120;2023-01-29T19:49:39;38.60;;;34.50;;
16039;SDS011;8124;48.634;8.120;2023-01-29T19:59:49;38.20;;;34.00;;
16039;SDS011;8124;48.634;8.120;2023-01-29T20:04:52;39.17;;;34.07;;
16039;SDS011;8124;48.634;8.120;2023-01-29T20:09:55;38.03;;;33.83;;
16039;SDS011;8124;48.634;8.120;2023-01-29T20:14:59;38.40;;;34.20;;
16039;SDS011;8124;48.634;8.120;2023-01-29T20:20:03;37.47;;;33.33;;
16039;SDS011;8124;48.634;8.120;2023-01-29T20:25:09;39.13;;;34.47;;
16039;SDS011;8124;48.634;8.120;2023-01-29T20:30:19;38.20;;;34.13;;
16039;SDS011;8124;48.634;8.120;2023-01-29T20:35:27;39.27;;;34.53;;
16039;SDS011;8124;48.634;8.120;2023-01-29T20:40:31;41.40;;;34.33;;
16039;SDS011;8124;48.634;8.120;2023-01-29T20:45:38;41.67;;;35.03;;
16039;SDS011;8124;48.634;8.120;2023-01-29T20:50:41;38.27;;;34.17;;
16039;SDS011;8124;48.634;8.120;2023-01-29T20:55:45;41.27;;;35.03;;
16039;SDS011;8124;48.634;8.120;2023-01-29T21:00:50;38.97;;;34.43;;
16039;SDS011;8124;48.634;8.120;2023-01-29T21:05:53;39.03;;;34.73;;
16039;SDS011;8124;48.634;8.120;2023-01-29T21:10:59;38.37;;;34.13;;
16039;SDS011;8124;48.634;8.120;2023-01-29T21:16:03;42.63;;;36.07;;
16039;SDS011;8124;48.634;8.120;2023-01-29T21:21:09;41.80;;;37.27;;
16039;SDS011;8124;48.634;8.120;2023-01-29T21:26:12;39.47;;;35.17;;
16039;SDS011;8124;48.634;8.120;2023-01-29T21:31:16;41.83;;;36.40;;
16039;SDS011;8124;48.634;8.120;2023-01-29T21:36:19;39.50;;;34.63;;
16039;SDS011;8124;48.634;8.120;2023-01-29T21:41:22;39.17;;;34.87;;
16039;SDS011;8124;48.634;8.120;2023-01-29T21:46:47;38.80;;;34.60;;
16039;SDS011;8124;48.634;8.120;2023-01-29T21:51:50;38.73;;;34.33;;
16039;SDS011;8124;48.634;8.120;2023-01-29T21:56:52;40.47;;;35.70;;
16039;SDS011;8124;48.634;8.120;2023-01-29T22:01:57;38.30;;;34.10;;
16039;SDS011;8124;48.634;8.120;2023-01-29T22:07:00;40.17;;;34.67;;
16039;SDS011;8124;48.634;8.120;2023-01-29T22:12:04;40.50;;;35.93;;
16039;SDS011;8124;48.634;8.120;2023-01-29T22:17:09;39.67;;;35.37;;
16039;SDS011;8124;48.634;8.120;2023-01-29T22:22:12;38.90;;;34.70;;
16039;SDS011;8124;48.634;8.120;2023-01-29T22:27:15;43.37;;;35.70;;
16039;SDS011;8124;48.634;8.120;2023-01-29T22:32:20;40.97;;;36.63;;
16039;SDS011;8124;48.634;8.120;2023-01-29T22:37:22;42.70;;;36.23;;
16039;SDS011;8124;48.634;8.120;2023-01-29T22:42:25;39.67;;;35.37;;
16039;SDS011;8124;48.634;8.120;2023-01-29T22:47:31;42.27;;;37.10;;
16039;SDS011;8124;48.634;8.120;2023-01-29T22:52:34;41.43;;;35.83;;
16039;SDS011;8124;48.634;8.120;2023-01-29T22:57:39;39.30;;;34.73;;
16039;SDS011;8124;48.634;8.120;2023-01-29T23:02:43;41.30;;;35.53;;
16039;SDS011;8124;48.634;8.120;2023-01-29T23:07:47;40.93;;;36.50;;
16039;SDS011;8124;48.634;8.120;2023-01-29T23:12:50;39.10;;;34.80;;
16039;SDS011;8124;48.634;8.120;2023-01-29T23:17:54;39.80;;;35.40;;
16039;SDS011;8124;48.634;8.120;2023-01-29T23:22:57;40.60;;;35.33;;
16039;SDS011;8124;48.634;8.120;2023-01-29T23:28:01;40.03;;;35.57;;
16039;SDS011;8124;48.634;8.120;2023-01-29T23:33:05;43.10;;;35.57;;
16039;SDS011;8124;48.634;8.120;2023-01-29T23:38:12;41.47;;;35.17;;
16039;SDS011;8124;48.634;8.120;2023-01-29T23:43:15;39.17;;;34.00;;
16039;SDS011;8124;48.634;8.120;2023-01-29T23:48:19;39.27;;;33.90;;
16039;SDS011;8124;48.634;8.120;2023-01-29T23:53:22;40.93;;;35.33;;
16039;SDS011;8124;48.634;8.120;2023-01-29T23:58:26;38.67;;;34.47;;
